St. George, Utah Weather observations

Data are for observation ending at time listed.
 Day   Time    Ave.   Ave.  Ave.  Vector   Max.   Stn.    Total    Solar   Ave.  
  of    of     Air    Rel.  Wind   Wind    Wind   Baro.  Precip.   Rad.    Soil  
Year   Day     Temp.  Hum.  Speed  Dir.    Gust   Pres.                    Temp. 
2014   (MST)    F      %     mph   deg.    mph     mb.     in.     W/m2     F   
------------------------------------------------------------------------------
 231   23:50   70.5    80    1.0   313      2.9   917.8    0.00       0    78.5
 232    0:00   71.1    76    1.1   320      3.2   917.8    0.00       0    78.4
 232    0:10   71.3    75    0.6   145      2.0   917.8    0.00       0    78.4
 232    0:20   71.3    76    1.4   135      5.0   917.7    0.00       0    78.3
 232    0:30   71.3    77    0.6   179      2.0   917.7    0.00       0    78.3
 232    0:40   70.7    79    1.0   202      1.8   917.8    0.00       0    78.2
 232    0:50   69.9    82    0.9   206      2.3   917.8    0.00       0    78.2
 232    1:00   69.4    84    0.9   340      2.2   917.9    0.00       0    78.1
 232    1:10   69.0    84    0.5   114      2.9   917.9    0.00       0    78.0
 232    1:20   69.1    84    0.8    65      2.6   918.0    0.00       0    78.0
 232    1:30   69.0    84    0.6   137      1.7   918.0    0.00       0    77.9
 232    1:40   68.9    84    0.6   192      1.6   917.9    0.00       0    77.9
 232    1:50   68.8    84    0.4   163      1.1   917.9    0.00       0    77.8
 232    2:00   68.5    85    0.1    30      0.7   918.0    0.00       0    77.8
 232    2:10   68.3    86    0.8    22      1.6   918.0    0.00       0    77.7
 232    2:20   68.1    85    0.6    31      1.4   918.0    0.00       0    77.6
 232    2:30   68.0    83    0.5    70      1.6   918.0    0.00       0    77.6
 232    2:40   68.0    83    0.1    48      1.1   918.1    0.00       0    77.5
 232    2:50   67.7    83    0.1   219      1.2   918.1    0.00       0    77.5
 232    3:00   67.8    84    0.3   316      1.2   918.2    0.00       0    77.4
 232    3:10   67.7    85    0.3    29      1.1   918.3    0.00       0    77.4
 232    3:20   67.7    86    0.9    25      2.0   918.2    0.00       0    77.3
 232    3:30   68.1    86    0.9    15      2.3   918.3    0.00       0    77.3
 232    3:40   68.1    85    0.8    56      3.7   918.2    0.00       0    77.2
 232    3:50   68.2    85    1.3    44      3.7   918.1    0.00       0    77.1
 232    4:00   68.4    84    1.5    42      3.3   918.1    0.00       0    77.1
 232    4:10   68.6    83    1.4   316      2.9   918.2    0.00       0    77.0
 232    4:20   68.6    83    1.2   332      3.0   918.2    0.00       0    77.0
 232    4:30   68.4    83    0.9   242      1.9   918.2    0.00       0    76.9
 232    4:40   68.4    83    0.9   170      2.6   918.2    0.00       0    76.9
 232    4:50   68.4    84    1.1   122      4.3   918.2    0.00       0    76.8
 232    5:00   68.5    83    0.9   100      2.5   918.3    0.00       0    76.7
 232    5:10   68.2    83    1.4    60      3.0   918.4    0.00       0    76.7
 232    5:20   67.9    84    0.9    37      4.2   918.6    0.00       0    76.7
 232    5:30   67.7    82    0.7    38      3.7   918.6    0.00       0    76.6
 232    5:40   67.6    82    0.8   314      2.1   918.8    0.00       0    76.6
 232    5:50   67.5    83    0.4   262      1.2   919.0    0.00       0    76.5
 232    6:00   67.4    80    0.5    13      4.8   919.2    0.00       3    76.5
 232    6:10   67.2    79    0.5   108      3.3   919.3    0.00       7    76.4
 232    6:20   67.2    78    0.7    96      2.8   919.4    0.00      11    76.4
 232    6:30   67.7    72    1.2    67      3.8   919.5    0.00      16    76.3
 232    6:40   68.2    72    1.1    59      3.3   919.6    0.00      21    76.3
 232    6:50   68.6    72    0.4   153      1.6   919.7    0.00      24    76.2
 232    7:00   68.9    71    1.3   228      2.3   919.9    0.00      27    76.2
 232    7:10   69.3    71    0.7   199      2.0   919.9    0.00      33    76.1
 232    7:20   69.6    71    0.4    83      1.5   920.0    0.00      35    76.0
 232    7:30   69.7    69    1.6   156      3.4   920.1    0.00      55    76.0
 232    7:40   70.1    68    1.6   136      3.1   920.1    0.00     107    75.9
 232    7:50   70.1    71    2.0   163      4.4   920.1    0.00     253    75.9
 232    8:00   69.9    70    2.0   183      4.4   920.2    0.00     291    75.9
 232    8:10   71.0    66    1.1   177      3.2   920.4    0.00     325    75.8
 232    8:20   73.1    62    0.9   138      3.5   920.5    0.00     363    75.8
 232    8:30   73.7    59    1.5    94      4.1   920.6    0.00     409    75.8
 232    8:40   74.3    58    1.3   116      3.9   920.7    0.00     448    75.8
 232    8:50   74.6    56    1.5    83      4.3   920.6    0.00     449    75.8
 232    9:00   75.5    51    1.3    80      4.2   920.6    0.00     490    75.8
 232    9:10   75.8    49    1.6    97      3.5   920.7    0.00     518    75.7
 232    9:20   76.7    46    1.7   153      4.5   920.7    0.00     547    75.7
 232    9:30   76.2    47    1.2   140      2.9   920.8    0.00     575    75.8
 232    9:40   76.9    46    1.4    44      3.4   920.8    0.00     602    75.8
 232    9:50   76.7    46    1.5    21      4.1   920.7    0.00     630    75.9
 232   10:00   78.3    44    1.6   140      4.0   920.7    0.00     654    76.0
 232   10:10   78.7    43    2.1   144      5.0   920.8    0.00     681    76.1
 232   10:20   79.1    42    2.1   105      5.8   920.8    0.00     703    76.2
 232   10:30   79.0    44    2.7   154      6.1   920.8    0.00     727    76.3
 232   10:40   79.6    44    1.5    75      3.8   920.7    0.00     762    76.4
 232   10:50   80.2    43    2.2   168      5.5   920.7    0.00     786    76.6
 232   11:00   79.6    44    2.3   188      5.5   920.6    0.00     810    76.8
 232   11:10   80.7    42    2.6   179      5.9   920.7    0.00     821    76.9
 232   11:20   81.4    41    1.1   177      4.7   920.7    0.00     818    77.1
 232   11:30   82.7    40    1.2   181      3.7   920.6    0.00     574    77.3
 232   11:40   81.8    41    2.0   132      4.5   920.5    0.00     663    77.4
 232   11:50   83.2    39    1.3   125      4.5   920.4    0.00     899    77.6
 232   12:00   83.9    38    2.0   156      4.5   920.3    0.00     881    77.8
 232   12:10   84.2    37    1.7   202      4.6   920.2    0.00     791    78.0
 232   12:20   83.3    37    2.4   177      5.4   920.1    0.00     408    78.1
 232   12:30   82.5    37    1.7   269      4.0   920.0    0.00     254    78.4
 232   12:40   83.2    37    0.6   248      4.9   919.9    0.00     398    78.6
 232   12:50   83.8    36    1.9   151      3.9   919.8    0.00     565    78.9
 232   13:00   85.0    36    1.5   164      4.9   919.7    0.00     954    79.1
 232   13:10   85.0    33    4.0   222      6.7   919.6    0.00     842    79.2
 232   13:20   84.9    33    2.9   226      7.1   919.5    0.00     881    79.4
 232   13:30   85.3    33    4.0   212      8.7   919.4    0.00     864    79.7
 232   13:40   85.9    33    2.6   234      7.2   919.3    0.00     855    79.9
 232   13:50   86.5    32    4.4   220      8.5   919.1    0.00     848    80.1
 232   14:00   86.5    32    3.6   204      8.0   918.9    0.00     837    80.3
 232   14:10   86.9    32    2.2   195      6.0   918.7    0.00     821    80.5
 232   14:20   87.1    30    3.8   198      9.1   918.6    0.00     809    80.7
 232   14:30   87.7    31    4.2   292     11.0   918.4    0.00     798    81.0
 232   14:40   87.6    29    4.6   256     11.5   918.3    0.00     794    81.2
 232   14:50   88.3    26    5.6   237     13.5   918.2    0.00     772    81.4
 232   15:00   88.8    23    4.6   242     11.2   918.0    0.00     750    81.7
 232   15:10   88.9    22    7.0   232     13.5   917.9    0.00     735    81.9
 232   15:20   88.9    22    6.6   231     13.3   917.9    0.00     734    82.1
 232   15:30   89.5    21    4.5   263     11.3   917.9    0.00     750    82.4
 232   15:40   89.2    21    5.5   236     15.2   917.8    0.00     432    82.6
 232   15:50   89.0    21    6.3   226     14.1   917.8    0.00     630    82.8
 232   16:00   89.7    21    5.7   226     14.2   917.8    0.00     596    83.0
 232   16:10   89.6    22    7.3   227     12.8   917.7    0.00     684    83.1
 232   16:20   89.9    21    6.8   225     11.7   917.6    0.00     677    83.3
 232   16:30   89.8    22    5.7   246     11.5   917.6    0.00     636    83.5
 232   16:40   90.2    22    4.8   251     14.5   917.6    0.00     609    83.6
 232   16:50   89.5    22    5.7   238     13.0   917.8    0.00     345    83.8
 232   17:00   88.0    23    5.0   229     11.6   917.7    0.00     179    83.9
 232   17:10   89.3    22    5.2   238     11.0   917.5    0.00     495    84.0
 232   17:20   89.9    21    4.3   232     10.4   917.4    0.00     435    84.1
 232   17:30   89.5    22    4.1   246     10.7   917.4    0.00     360    84.1
 232   17:40   89.6    22    4.8   232      7.7   917.4    0.00     322    84.2
 232   17:50   88.6    22    6.0   237     11.7   917.4    0.00     296    84.2
 232   18:00   88.5    22    4.6   240     10.0   917.4    0.00     251    84.3
 232   18:10   88.3    23    4.6   223      8.0   917.4    0.00     208    84.3
 232   18:20   88.2    23    3.2   250      9.1   917.4    0.00     114    84.3
 232   18:30   87.5    23    4.8   233      9.7   917.3    0.00     124    84.3
 232   18:40   87.1    23    4.3   233      9.6   917.4    0.00      78    84.3
 232   18:50   86.8    23    3.3   233      7.4   917.5    0.00      23    84.3
 232   19:00   86.5    23    3.6   235      7.8   917.5    0.00      20    84.2
 232   19:10   86.2    23    3.5   239      7.8   917.6    0.00      15    84.2
 232   19:20   85.8    23    2.8   234      7.6   917.6    0.00       7    84.1
 232   19:30   85.5    23    2.3   232      5.0   917.7    0.00       3    84.1
 232   19:40   84.8    24    1.2   197      2.6   917.8    0.00       3    84.0
 232   19:50   83.2    30    2.3   156      6.6   917.9    0.00       1    84.0
 232   20:00   81.2    35    1.3   165      4.0   918.1    0.00       0    83.9
 232   20:10   80.4    37    1.7   119      5.5   918.2    0.00       0    83.8
 232   20:20   79.7    39    0.7   163      3.1   918.3    0.00       0    83.7
 232   20:30   79.0    40    1.5   161      3.9   918.4    0.00       0    83.6
 232   20:40   78.8    40    1.5   158      4.3   918.5    0.00       0    83.6
 232   20:50   78.2    41    0.9   127      3.6   918.6    0.00       0    83.5
 232   21:00   78.1    41    0.9   117      5.0   918.8    0.00       0    83.4
 232   21:10   77.9    42    2.0    81      6.1   919.0    0.00       0    83.3
 232   21:20   77.4    43    2.7    60      6.1   919.2    0.00       0    83.2
 232   21:30   77.1    42    2.4    84      5.6   919.2    0.00       0    83.1
 232   21:40   77.5    40    2.0    79      5.6   919.2    0.00       0    83.0
 232   21:50   77.7    40    2.0    86      5.6   919.3    0.00       0    82.9
 232   22:00   77.9    38    2.9    94      7.6   919.4    0.00       0    82.8
 232   22:10   78.0    37    3.8    89      8.3   919.4    0.00       0    82.7
 232   22:20   77.7    38    3.7    86      7.5   919.5    0.00       0    82.6
 232   22:30   77.6    38    3.0    76      7.9   919.6    0.00       0    82.5
 232   22:40   77.3    39    2.4    92      5.3   919.6    0.00       0    82.4
 232   22:50   77.0    39    2.8    95      7.7   919.6    0.00       0    82.3
 232   23:00   77.2    40    2.8    68      8.1   919.7    0.00       0    82.2
 232   23:10   76.3    44    2.8    52      7.7   919.7    0.00       0    82.1
 232   23:20   75.7    45    2.4    56      6.6   919.7    0.00       0    82.0
 232   23:30   75.4    46    2.3    52      7.7   919.8    0.00       0    81.9
 232   23:40   75.1    46    2.3    52      5.7   919.9    0.00       0    81.8

Return to St. George, Utah graphs page.


Western Regional Climate Center,wrcc@dri.edu